Time;durP1;ratioP1;P1;durP2;ratioP2;P2;SDS_P1;SDS_P2;PMS_P1;PMS_P2;Temp;Humidity;BMP_temperature;BMP_pressure;BME280_temperature;BME280_humidity;BME280_pressure;Samples;Min_cycle;Max_cycle;Signal;HPM_P1;HPM_P2
2022/03/14 00:02:10;;;;;;;7.90;3.08;;;0.10;98.50;;;;;;5073078;28;20056;-70
2022/03/14 00:04:37;;;;;;;8.90;2.95;;;0.10;98.60;;;;;;5073061;28;20028;-70
2022/03/14 00:07:04;;;;;;;6.82;2.92;;;0.10;98.30;;;;;;5073231;28;20146;-70
2022/03/14 00:09:30;;;;;;;6.68;3.80;;;0.10;98.60;;;;;;5071642;28;20021;-69
2022/03/14 00:11:57;;;;;;;6.45;3.28;;;0.00;98.90;;;;;;5072906;28;20522;-70
2022/03/14 00:14:25;;;;;;;4.70;2.70;;;0.00;99.10;;;;;;5072895;28;20016;-70
2022/03/14 00:16:52;;;;;;;6.38;2.92;;;0.00;99.10;;;;;;5072893;28;20473;-69
2022/03/14 00:19:20;;;;;;;5.75;2.67;;;0.10;99.00;;;;;;5073352;28;20032;-69
2022/03/14 00:21:47;;;;;;;4.15;2.35;;;0.10;99.00;;;;;;5072879;28;20397;-70
2022/03/14 00:24:12;;;;;;;5.72;2.47;;;0.10;98.90;;;;;;5073116;28;20025;-69
2022/03/14 00:26:39;;;;;;;5.55;2.67;;;0.10;98.90;;;;;;5073057;28;20035;-69
2022/03/14 00:29:06;;;;;;;6.68;3.05;;;0.00;99.30;;;;;;5071483;28;20067;-69
2022/03/14 00:31:32;;;;;;;5.53;2.63;;;-0.10;99.60;;;;;;5073121;28;20599;-69
2022/03/14 00:33:58;;;;;;;5.45;2.85;;;-0.10;99.60;;;;;;5072824;28;20119;-69
2022/03/14 00:36:25;;;;;;;6.35;3.25;;;-0.20;99.90;;;;;;5072781;28;20028;-69
2022/03/14 00:38:51;;;;;;;7.78;3.20;;;-0.20;99.90;;;;;;5075190;28;20430;-68
2022/03/14 00:41:17;;;;;;;5.30;2.25;;;-0.30;99.90;;;;;;5075114;28;20032;-69
2022/03/14 00:43:43;;;;;;;5.32;2.17;;;-0.50;99.90;;;;;;5076561;28;20404;-69
2022/03/14 00:46:09;;;;;;;6.00;2.40;;;-0.50;99.90;;;;;;5076236;28;20025;-69
2022/03/14 00:48:36;;;;;;;4.10;2.05;;;-0.50;99.90;;;;;;5074964;28;20443;-69
2022/03/14 00:51:03;;;;;;;3.95;2.20;;;-0.50;99.90;;;;;;5076145;28;20043;-69
2022/03/14 00:53:30;;;;;;;4.72;2.45;;;-0.50;99.90;;;;;;5076135;28;20107;-69
2022/03/14 00:55:56;;;;;;;5.80;2.75;;;-0.50;99.90;;;;;;5076079;28;20020;-68
2022/03/14 00:58:22;;;;;;;6.05;2.80;;;-0.50;99.90;;;;;;5076028;28;20498;-69
2022/03/14 01:00:49;;;;;;;7.15;3.03;;;-0.40;99.90;;;;;;5075911;28;20020;-69
2022/03/14 01:03:15;;;;;;;4.95;2.75;;;-0.40;99.90;;;;;;5075958;28;20059;-69
2022/03/14 01:05:41;;;;;;;7.00;3.00;;;-0.40;99.90;;;;;;5075833;28;20029;-69
2022/03/14 01:08:08;;;;;;;8.18;3.67;;;-0.30;99.90;;;;;;5076126;28;20096;-69
2022/03/14 01:10:34;;;;;;;7.45;3.70;;;-0.40;99.90;;;;;;5075885;28;20120;-69
2022/03/14 01:13:02;;;;;;;6.88;3.40;;;-0.30;99.90;;;;;;5076071;28;20021;-69
2022/03/14 01:15:29;;;;;;;6.78;3.20;;;-0.30;99.90;;;;;;5075853;28;20478;-69
2022/03/14 01:17:55;;;;;;;8.13;3.40;;;-0.30;99.90;;;;;;5075996;28;20025;-69
2022/03/14 01:20:21;;;;;;;6.43;2.92;;;-0.30;99.90;;;;;;5075603;28;20480;-69
2022/03/14 01:22:47;;;;;;;6.45;3.00;;;-0.40;99.70;;;;;;5075626;28;20048;-69
2022/03/14 01:25:12;;;;;;;6.82;3.10;;;-0.40;99.70;;;;;;5075505;28;20480;-69
2022/03/14 01:27:38;;;;;;;5.38;2.60;;;-0.40;99.70;;;;;;5075823;28;20025;-69
2022/03/14 01:30:04;;;;;;;6.55;2.95;;;-0.50;99.80;;;;;;5075366;28;20020;-69
2022/03/14 01:32:30;;;;;;;7.55;3.10;;;-0.60;99.90;;;;;;5075695;28;20103;-69
2022/03/14 01:34:56;;;;;;;7.82;3.42;;;-0.70;99.90;;;;;;5075364;28;20100;-69
2022/03/14 01:37:21;;;;;;;5.15;2.50;;;-0.80;99.90;;;;;;5075321;28;20020;-69
2022/03/14 01:39:47;;;;;;;7.72;2.90;;;-0.80;99.90;;;;;;5075252;28;20028;-69
2022/03/14 01:42:19;;;;;;;5.70;3.00;;;-0.80;99.90;;;;;;5075467;28;20441;-69
2022/03/14 01:44:47;;;;;;;4.97;2.63;;;-0.80;99.90;;;;;;5075226;28;20032;-69
2022/03/14 01:47:16;;;;;;;6.60;3.17;;;-0.80;99.90;;;;;;5075063;28;20025;-69
2022/03/14 01:49:43;;;;;;;7.32;2.92;;;-0.80;99.90;;;;;;5074394;28;20021;-69
2022/03/14 01:52:09;;;;;;;9.68;3.55;;;-0.80;99.90;;;;;;5075057;28;20024;-69
2022/03/14 01:54:36;;;;;;;9.60;3.88;;;-0.70;99.90;;;;;;5075019;28;20024;-69
2022/03/14 01:57:01;;;;;;;9.32;3.85;;;-0.80;99.90;;;;;;5074926;28;20503;-69
2022/03/14 01:59:29;;;;;;;9.45;4.07;;;-0.80;99.90;;;;;;5075110;28;20037;-69
2022/03/14 02:01:57;;;;;;;10.35;3.63;;;-0.70;99.90;;;;;;5073570;28;20028;-69
2022/03/14 02:04:23;;;;;;;7.60;3.58;;;-0.70;99.90;;;;;;5074861;28;20029;-69
2022/03/14 02:06:52;;;;;;;8.02;3.05;;;-0.70;99.90;;;;;;5074655;28;20029;-69
2022/03/14 02:09:19;;;;;;;6.07;2.90;;;-0.70;99.90;;;;;;5074892;28;20028;-69
2022/03/14 02:11:55;;;;;;;6.57;3.15;;;-0.70;99.90;;;;;;5074631;28;20090;-69
2022/03/14 02:14:21;;;;;;;8.38;3.30;;;-0.70;99.90;;;;;;5074610;28;20025;-69
2022/03/14 02:16:46;;;;;;;5.63;2.53;;;-0.60;99.90;;;;;;5075072;28;20098;-69
2022/03/14 02:19:12;;;;;;;6.50;3.30;;;-0.70;99.90;;;;;;5074441;28;20393;-69
2022/03/14 02:21:38;;;;;;;7.63;2.90;;;-0.70;99.90;;;;;;5073181;28;20484;-70
2022/03/14 02:24:04;;;;;;;4.97;2.85;;;-0.70;99.90;;;;;;5074370;28;20029;-70
2022/03/14 02:26:30;;;;;;;5.30;2.72;;;-0.70;99.90;;;;;;5074277;28;20024;-70
2022/03/14 02:28:55;;;;;;;5.70;2.60;;;-0.70;99.90;;;;;;5074272;28;20502;-69
2022/03/14 02:31:21;;;;;;;6.30;2.17;;;-0.70;99.90;;;;;;5072976;28;20016;-70
2022/03/14 02:33:47;;;;;;;4.85;2.47;;;-0.70;99.90;;;;;;5074461;28;20024;-70
2022/03/14 02:36:12;;;;;;;6.90;2.78;;;-0.70;99.90;;;;;;5074460;28;20044;-70
2022/03/14 02:38:39;;;;;;;5.57;2.72;;;-0.70;99.90;;;;;;5074118;28;20037;-70
2022/03/14 02:41:04;;;;;;;6.65;2.92;;;-0.70;99.90;;;;;;5074018;28;20490;-69
2022/03/14 02:43:30;;;;;;;7.53;2.83;;;-0.70;99.90;;;;;;5073996;28;20104;-70
2022/03/14 02:45:56;;;;;;;7.00;2.97;;;-0.70;99.90;;;;;;5074146;28;20028;-69
2022/03/14 02:48:23;;;;;;;8.10;3.78;;;-0.70;99.90;;;;;;5074188;28;20103;-70
2022/03/14 02:50:52;;;;;;;11.13;4.22;;;-0.80;99.90;;;;;;5073865;28;20077;-69
2022/03/14 02:53:18;;;;;;;8.88;4.32;;;-0.80;99.90;;;;;;5073863;28;20468;-69
2022/03/14 02:55:44;;;;;;;7.55;3.35;;;-0.90;99.90;;;;;;5073833;28;20095;-70
2022/03/14 02:58:10;;;;;;;6.32;3.20;;;-0.90;99.90;;;;;;5073796;28;20377;-69
2022/03/14 03:00:36;;;;;;;5.18;2.63;;;-0.90;99.90;;;;;;5073561;28;20028;-70
2022/03/14 03:03:04;;;;;;;6.13;2.92;;;-1.00;99.90;;;;;;5073724;28;20096;-69
2022/03/14 03:05:31;;;;;;;5.15;2.80;;;-1.00;99.90;;;;;;5072375;28;20056;-69
2022/03/14 03:07:59;;;;;;;6.32;2.88;;;-1.10;99.90;;;;;;5073639;28;20380;-70
2022/03/14 03:10:25;;;;;;;6.75;2.90;;;-1.10;99.90;;;;;;5073522;28;20024;-69
2022/03/14 03:12:52;;;;;;;5.53;2.90;;;-1.10;99.90;;;;;;5073546;28;20020;-70
2022/03/14 03:15:18;;;;;;;5.90;3.15;;;-1.00;99.90;;;;;;5073580;28;20041;-70
2022/03/14 03:17:44;;;;;;;7.30;3.13;;;-1.00;99.90;;;;;;5073836;28;20086;-70
2022/03/14 03:20:11;;;;;;;5.93;3.03;;;-1.00;99.90;;;;;;5073781;28;20101;-69
2022/03/14 03:22:38;;;;;;;7.07;3.47;;;-0.90;99.90;;;;;;5073456;28;20095;-70
2022/03/14 03:25:05;;;;;;;8.63;3.67;;;-0.90;99.90;;;;;;5073747;28;20021;-70
2022/03/14 03:27:32;;;;;;;6.78;3.35;;;-0.90;99.90;;;;;;5073386;28;20024;-70
2022/03/14 03:30:01;;;;;;;5.60;3.17;;;-0.90;99.90;;;;;;5073494;28;20024;-69
2022/03/14 03:32:26;;;;;;;5.55;2.80;;;-0.90;99.90;;;;;;5073651;28;20491;-70
2022/03/14 03:34:53;;;;;;;6.53;3.17;;;-1.00;99.90;;;;;;5073364;28;20029;-70
2022/03/14 03:37:19;;;;;;;6.53;3.00;;;-1.00;99.90;;;;;;5073311;28;20093;-70
2022/03/14 03:39:45;;;;;;;4.50;2.60;;;-1.00;99.90;;;;;;5073269;28;20029;-69
2022/03/14 03:42:10;;;;;;;9.32;3.63;;;-1.00;99.90;;;;;;5073544;28;20020;-70
2022/03/14 03:44:36;;;;;;;7.22;3.42;;;-1.00;99.90;;;;;;5073560;28;20029;-70
2022/03/14 03:47:03;;;;;;;7.63;3.05;;;-1.00;99.90;;;;;;5073718;28;20073;-70
2022/03/14 03:49:29;;;;;;;6.63;3.30;;;-1.00;99.90;;;;;;5073104;28;20024;-70
2022/03/14 03:51:54;;;;;;;8.35;3.15;;;-1.00;99.90;;;;;;5073142;28;20029;-70
2022/03/14 03:54:21;;;;;;;7.53;3.80;;;-1.00;99.90;;;;;;5073197;28;20017;-69
2022/03/14 03:56:47;;;;;;;7.45;3.28;;;-1.00;99.90;;;;;;5073248;28;20028;-69
2022/03/14 03:59:13;;;;;;;5.68;3.13;;;-1.10;99.90;;;;;;5073383;28;20116;-69
2022/03/14 04:01:39;;;;;;;5.13;2.90;;;-1.20;99.90;;;;;;5073064;28;20062;-70
2022/03/14 04:04:05;;;;;;;6.20;2.90;;;-1.20;99.90;;;;;;5073071;28;20024;-70
2022/03/14 04:06:30;;;;;;;7.63;3.38;;;-1.20;99.90;;;;;;5072985;28;20020;-70
2022/03/14 04:09:00;;;;;;;8.52;3.70;;;-1.10;99.90;;;;;;5073189;28;20031;-69
2022/03/14 04:11:26;;;;;;;7.10;3.05;;;-1.10;99.90;;;;;;5072977;28;20029;-69
2022/03/14 04:13:54;;;;;;;5.40;2.58;;;-1.10;99.90;;;;;;5075669;28;20037;-69
2022/03/14 04:16:22;;;;;;;5.93;2.97;;;-1.10;99.90;;;;;;5077133;28;20028;-69
2022/03/14 04:18:47;;;;;;;6.25;3.05;;;-1.20;99.90;;;;;;5077103;28;20039;-69
2022/03/14 04:21:14;;;;;;;7.18;2.85;;;-1.20;99.90;;;;;;5076924;28;20033;-70
2022/03/14 04:23:40;;;;;;;7.32;2.63;;;-1.20;99.90;;;;;;5076720;28;20021;-70
2022/03/14 04:26:06;;;;;;;8.07;3.10;;;-1.20;99.90;;;;;;5076933;28;20033;-70
2022/03/14 04:28:33;;;;;;;5.57;2.80;;;-1.20;99.90;;;;;;5077126;28;20031;-69
2022/03/14 04:30:59;;;;;;;7.45;3.22;;;-1.20;99.90;;;;;;5076482;28;20016;-69
2022/03/14 04:33:25;;;;;;;7.68;3.33;;;-1.20;99.90;;;;;;5076496;28;20047;-69
2022/03/14 04:35:51;;;;;;;6.10;3.30;;;-1.30;99.90;;;;;;5076809;28;20385;-70
2022/03/14 04:38:17;;;;;;;5.40;3.00;;;-1.40;99.90;;;;;;5075156;28;20025;-69
2022/03/14 04:40:43;;;;;;;9.23;3.20;;;-1.50;99.90;;;;;;5076312;28;20074;-69
2022/03/14 04:43:10;;;;;;;17.83;7.90;;;-1.50;99.90;;;;;;5076354;28;20033;-69
2022/03/14 04:45:36;;;;;;;15.48;7.70;;;-1.60;99.90;;;;;;5076773;28;20076;-69
2022/03/14 04:48:06;;;;;;;14.43;6.60;;;-1.70;99.90;;;;;;5075014;28;20028;-70
2022/03/14 04:50:32;;;;;;;10.45;4.38;;;-1.60;99.90;;;;;;5074879;28;20043;-69
2022/03/14 04:52:58;;;;;;;9.30;4.53;;;-1.60;99.90;;;;;;5076191;28;20017;-70
2022/03/14 04:55:24;;;;;;;6.82;3.25;;;-1.60;99.90;;;;;;5076147;28;20396;-69
2022/03/14 04:57:50;;;;;;;7.75;3.45;;;-1.50;99.90;;;;;;5075954;28;20090;-70
2022/03/14 05:00:17;;;;;;;9.60;3.65;;;-1.50;99.90;;;;;;5076267;28;20027;-69
2022/03/14 05:02:43;;;;;;;8.13;3.53;;;-1.50;99.90;;;;;;5076032;28;20082;-70
2022/03/14 05:05:12;;;;;;;7.15;3.45;;;-1.50;99.90;;;;;;5074687;28;20020;-69
2022/03/14 05:07:41;;;;;;;9.57;3.80;;;-1.60;99.90;;;;;;5076123;28;20440;-69
2022/03/14 05:10:07;;;;;;;7.28;3.17;;;-1.60;99.90;;;;;;5075797;28;20029;-69
2022/03/14 05:12:34;;;;;;;206.82;64.35;;;-1.60;99.90;;;;;;5076144;28;20021;-70
2022/03/14 05:15:00;;;;;;;20.50;9.10;;;-1.60;99.90;;;;;;5076568;28;20013;-69
2022/03/14 05:17:29;;;;;;;121.22;33.88;;;-1.60;99.90;;;;;;5075719;28;20021;-69
2022/03/14 05:19:54;;;;;;;39.33;17.48;;;-1.70;99.90;;;;;;5075954;28;20025;-69
2022/03/14 05:22:20;;;;;;;416.40;125.22;;;-1.80;99.90;;;;;;5075923;28;20039;-69
2022/03/14 05:24:46;;;;;;;29.52;10.57;;;-1.80;99.90;;;;;;5074322;28;20024;-69
2022/03/14 05:27:12;;;;;;;68.22;21.80;;;-1.80;99.90;;;;;;5075766;28;20104;-69
2022/03/14 05:29:38;;;;;;;45.50;16.75;;;-1.80;99.90;;;;;;5075701;28;20434;-69
2022/03/14 05:32:04;;;;;;;62.90;23.63;;;-1.80;99.90;;;;;;5075707;28;20049;-69
2022/03/14 05:34:30;;;;;;;62.55;20.75;;;-1.80;99.90;;;;;;5075383;28;20025;-69
2022/03/14 05:36:56;;;;;;;32.88;12.82;;;-1.80;99.90;;;;;;5075259;28;20028;-69
2022/03/14 05:39:22;;;;;;;19.95;8.25;;;-1.70;99.90;;;;;;5075224;28;20028;-68
2022/03/14 05:41:47;;;;;;;11.82;5.10;;;-1.70;99.90;;;;;;5075513;28;20408;-68
2022/03/14 05:44:13;;;;;;;12.50;4.60;;;-1.70;99.90;;;;;;5075483;28;20385;-69
2022/03/14 05:46:39;;;;;;;9.75;4.13;;;-1.70;99.90;;;;;;5075075;28;20108;-68
2022/03/14 05:49:04;;;;;;;39.50;17.13;;;-1.70;99.90;;;;;;5075319;28;20057;-68
2022/03/14 05:51:34;;;;;;;41.40;17.20;;;-1.80;99.90;;;;;;5075046;28;20020;-69
2022/03/14 05:54:00;;;;;;;34.90;14.55;;;-1.80;99.90;;;;;;5074981;28;20020;-69
2022/03/14 05:56:25;;;;;;;29.27;12.27;;;-1.80;99.90;;;;;;5073542;28;20028;-70
2022/03/14 05:58:51;;;;;;;19.73;9.38;;;-1.80;99.90;;;;;;5073640;28;20078;-68
2022/03/14 06:01:17;;;;;;;14.18;5.85;;;-1.80;99.90;;;;;;5074904;28;20020;-69
2022/03/14 06:03:43;;;;;;;12.25;6.90;;;-1.80;99.90;;;;;;5075388;28;20381;-69
2022/03/14 06:06:08;;;;;;;21.42;8.15;;;-1.80;99.90;;;;;;5075027;28;20385;-69
2022/03/14 06:08:34;;;;;;;22.35;8.93;;;-1.80;99.90;;;;;;5074774;28;20016;-69
2022/03/14 06:11:00;;;;;;;17.50;7.43;;;-1.80;99.90;;;;;;5074609;28;20430;-69
2022/03/14 06:13:25;;;;;;;15.13;8.25;;;-1.80;99.90;;;;;;5074908;28;20036;-69
2022/03/14 06:15:51;;;;;;;20.50;8.15;;;-1.80;99.90;;;;;;5074590;28;20020;-69
2022/03/14 06:18:17;;;;;;;19.67;8.65;;;-1.80;99.90;;;;;;5074519;28;20101;-69
2022/03/14 06:20:43;;;;;;;20.42;8.00;;;-1.70;99.90;;;;;;5074429;28;20016;-69
2022/03/14 06:23:09;;;;;;;19.27;7.18;;;-1.70;99.90;;;;;;5074673;28;20031;-70
2022/03/14 06:25:36;;;;;;;18.52;6.95;;;-1.60;99.90;;;;;;5074549;28;20111;-69
2022/03/14 06:28:02;;;;;;;15.50;6.50;;;-1.60;99.90;;;;;;5074626;28;20028;-69
2022/03/14 06:30:28;;;;;;;16.75;6.35;;;-1.50;99.90;;;;;;5074530;28;20023;-69
2022/03/14 06:32:54;;;;;;;15.93;6.18;;;-1.50;99.90;;;;;;5074225;28;20099;-69
2022/03/14 06:35:20;;;;;;;14.25;5.70;;;-1.50;99.90;;;;;;5073814;28;20021;-69
2022/03/14 06:37:46;;;;;;;12.15;4.57;;;-1.40;99.90;;;;;;5074170;28;20016;-69
2022/03/14 06:40:13;;;;;;;15.05;4.97;;;-1.40;99.90;;;;;;5074068;28;20107;-68
2022/03/14 06:42:41;;;;;;;13.20;4.45;;;-1.30;99.90;;;;;;5074062;28;20052;-69
2022/03/14 06:45:08;;;;;;;10.27;4.25;;;-1.30;99.90;;;;;;5074289;28;20461;-69
2022/03/14 06:47:34;;;;;;;11.88;3.45;;;-1.20;99.90;;;;;;5072574;28;20029;-69
2022/03/14 06:49:59;;;;;;;9.20;3.60;;;-1.20;99.90;;;;;;5073861;28;20058;-69
2022/03/14 06:52:25;;;;;;;12.23;4.07;;;-1.20;99.90;;;;;;5073857;28;20480;-69
2022/03/14 06:54:51;;;;;;;9.73;3.75;;;-1.20;99.90;;;;;;5073784;28;20017;-69
2022/03/14 06:57:17;;;;;;;12.30;4.43;;;-1.10;99.90;;;;;;5073823;28;20075;-70
2022/03/14 06:59:43;;;;;;;10.00;4.63;;;-1.10;99.90;;;;;;5073696;28;20396;-69
2022/03/14 07:02:09;;;;;;;10.73;4.45;;;-1.10;99.90;;;;;;5073730;28;20033;-69
2022/03/14 07:04:35;;;;;;;9.27;4.40;;;-1.00;99.90;;;;;;5073918;28;20021;-69
2022/03/14 07:07:03;;;;;;;10.32;4.80;;;-1.00;99.90;;;;;;5073520;28;20031;-69
2022/03/14 07:09:30;;;;;;;10.88;4.95;;;-0.90;99.90;;;;;;5073738;28;20025;-68
2022/03/14 07:11:56;;;;;;;11.68;4.95;;;-0.80;99.90;;;;;;5073851;28;20021;-69
2022/03/14 07:14:22;;;;;;;16.15;5.32;;;-0.80;99.90;;;;;;5073611;28;20469;-69
2022/03/14 07:16:49;;;;;;;13.23;5.70;;;-0.70;99.90;;;;;;5073773;28;20028;-69
2022/03/14 07:19:15;;;;;;;10.65;5.15;;;-0.70;99.90;;;;;;5073685;28;20449;-69
2022/03/14 07:21:40;;;;;;;14.13;5.32;;;-0.60;99.90;;;;;;5073399;28;20384;-69
2022/03/14 07:24:07;;;;;;;15.95;5.30;;;-0.50;99.90;;;;;;5073582;28;20031;-69
2022/03/14 07:26:33;;;;;;;15.23;5.80;;;-0.40;99.90;;;;;;5073326;28;20043;-69
2022/03/14 07:28:58;;;;;;;10.65;5.50;;;-0.30;99.90;;;;;;5073267;28;20465;-68
2022/03/14 07:31:24;;;;;;;10.52;5.70;;;-0.20;99.90;;;;;;5073410;28;20031;-69
2022/03/14 07:33:50;;;;;;;12.13;5.10;;;-0.10;99.90;;;;;;5073395;28;20024;-69
2022/03/14 07:36:17;;;;;;;8.70;4.72;;;0.00;99.90;;;;;;5073454;28;20381;-69
2022/03/14 07:38:44;;;;;;;9.30;4.75;;;0.10;99.90;;;;;;5073566;28;20055;-69
2022/03/14 07:41:13;;;;;;;14.85;6.00;;;0.20;99.90;;;;;;5071707;28;20393;-68
2022/03/14 07:43:40;;;;;;;10.43;5.13;;;0.30;99.90;;;;;;5071847;28;20166;-69
2022/03/14 07:46:07;;;;;;;12.90;4.70;;;0.40;99.90;;;;;;5073147;28;20025;-69
2022/03/14 07:48:34;;;;;;;10.65;5.18;;;0.50;99.90;;;;;;5075660;28;20031;-69
2022/03/14 07:51:00;;;;;;;9.30;5.13;;;0.70;99.90;;;;;;5076543;28;20027;-67
2022/03/14 07:53:25;;;;;;;10.02;5.30;;;0.80;99.90;;;;;;5059323;28;20029;-69
2022/03/14 07:55:52;;;;;;;12.60;6.40;;;0.90;99.90;;;;;;5062597;28;20028;-69
2022/03/14 07:58:18;;;;;;;12.50;5.65;;;1.00;99.90;;;;;;5076081;28;20028;-68
2022/03/14 08:00:44;;;;;;;17.00;6.50;;;1.10;99.90;;;;;;5074936;28;20477;-68
2022/03/14 08:03:10;;;;;;;11.77;6.00;;;1.20;99.90;;;;;;5076682;28;20027;-68
2022/03/14 08:05:37;;;;;;;14.50;6.97;;;1.30;99.90;;;;;;5076369;28;20099;-68
2022/03/14 08:08:05;;;;;;;10.52;5.95;;;1.30;99.90;;;;;;5076721;28;20019;-69
2022/03/14 08:10:30;;;;;;;13.73;6.45;;;1.40;99.90;;;;;;5076884;28;20065;-69
2022/03/14 08:12:57;;;;;;;19.20;7.88;;;1.50;99.90;;;;;;5077145;28;20025;-69
2022/03/14 08:15:25;;;;;;;13.07;7.10;;;1.60;99.90;;;;;;5077095;28;20021;-69
2022/03/14 08:17:53;;;;;;;16.25;8.80;;;1.70;99.90;;;;;;5077063;28;20024;-69
2022/03/14 08:20:19;;;;;;;18.63;9.25;;;1.80;99.90;;;;;;5076639;28;20419;-69
2022/03/14 08:22:45;;;;;;;20.45;8.73;;;1.90;99.90;;;;;;5076850;28;20043;-69
2022/03/14 08:25:11;;;;;;;20.90;9.32;;;2.00;99.90;;;;;;5076623;28;20020;-69
2022/03/14 08:27:38;;;;;;;17.00;8.43;;;2.10;99.90;;;;;;5076440;28;20432;-69
2022/03/14 08:30:05;;;;;;;13.77;9.07;;;2.10;99.90;;;;;;5076401;28;20104;-69
2022/03/14 08:32:32;;;;;;;17.33;8.15;;;2.20;99.80;;;;;;5076398;28;20020;-69
2022/03/14 08:34:59;;;;;;;17.40;8.88;;;2.30;99.00;;;;;;5076461;28;20044;-70
2022/03/14 08:37:26;;;;;;;18.15;9.35;;;2.40;98.90;;;;;;5076886;28;20108;-70
2022/03/14 08:39:51;;;;;;;22.10;8.43;;;2.50;98.40;;;;;;5076618;28;20021;-69
2022/03/14 08:42:17;;;;;;;17.65;8.40;;;2.70;98.10;;;;;;5076909;28;20028;-69
2022/03/14 08:44:43;;;;;;;15.63;7.63;;;2.80;97.60;;;;;;5074983;28;20388;-69
2022/03/14 08:47:08;;;;;;;20.98;8.57;;;3.00;96.90;;;;;;5076249;28;20025;-69
2022/03/14 08:49:34;;;;;;;23.65;9.55;;;3.00;96.80;;;;;;5076431;28;20529;-69
2022/03/14 08:52:00;;;;;;;15.80;8.02;;;3.20;96.50;;;;;;5076454;28;20021;-70
2022/03/14 08:54:26;;;;;;;23.38;9.80;;;3.30;95.80;;;;;;5076076;28;20523;-69
2022/03/14 08:56:52;;;;;;;29.65;14.80;;;3.50;94.90;;;;;;5075957;28;20032;-69
2022/03/14 08:59:17;;;;;;;25.73;12.38;;;3.70;94.30;;;;;;5075596;28;20025;-69
2022/03/14 09:01:43;;;;;;;22.30;10.98;;;3.90;93.80;;;;;;5076052;28;20373;-69
2022/03/14 09:04:09;;;;;;;25.40;12.68;;;4.00;93.60;;;;;;5076310;28;20091;-69
2022/03/14 09:06:37;;;;;;;29.27;12.40;;;4.10;93.50;;;;;;5075817;28;20031;-69
2022/03/14 09:09:03;;;;;;;24.83;11.68;;;4.20;93.10;;;;;;5076584;28;20374;-69
2022/03/14 09:11:29;;;;;;;20.83;9.60;;;4.30;92.20;;;;;;5075854;28;20021;-69
2022/03/14 09:13:55;;;;;;;21.45;10.25;;;4.40;92.00;;;;;;5075865;28;20028;-69
2022/03/14 09:16:21;;;;;;;22.48;10.55;;;4.50;91.70;;;;;;5075756;28;20020;-69
2022/03/14 09:18:47;;;;;;;23.20;12.65;;;4.60;91.80;;;;;;5075695;28;20028;-69
2022/03/14 09:21:14;;;;;;;27.13;11.90;;;4.70;91.60;;;;;;5074310;28;20106;-69
2022/03/14 09:23:43;;;;;;;24.20;12.45;;;4.80;91.40;;;;;;5075659;28;20024;-69
2022/03/14 09:26:09;;;;;;;23.42;11.60;;;4.90;90.60;;;;;;5075517;28;20070;-69
2022/03/14 09:28:36;;;;;;;20.98;11.35;;;5.00;90.60;;;;;;5074498;28;20388;-68
2022/03/14 09:31:03;;;;;;;23.25;12.73;;;5.20;90.60;;;;;;5075457;28;20020;-69
2022/03/14 09:33:29;;;;;;;22.80;11.82;;;5.40;90.10;;;;;;5075473;28;20036;-69
2022/03/14 09:35:54;;;;;;;20.63;11.07;;;5.60;88.80;;;;;;5075708;28;20384;-68
2022/03/14 09:38:20;;;;;;;27.60;11.95;;;5.80;89.20;;;;;;5074120;28;20024;-69
2022/03/14 09:40:48;;;;;;;23.45;11.63;;;5.80;87.30;;;;;;5075274;28;20028;-69
2022/03/14 09:43:17;;;;;;;23.00;11.68;;;6.00;86.40;;;;;;5075275;28;20020;-69
2022/03/14 09:45:50;;;;;;;24.88;12.02;;;6.10;85.80;;;;;;5073930;28;20082;-69
2022/03/14 09:48:17;;;;;;;25.38;12.00;;;6.10;86.20;;;;;;5075478;28;20027;-69
2022/03/14 09:50:47;;;;;;;28.50;12.45;;;6.10;86.30;;;;;;5075330;28;20400;-69
2022/03/14 09:53:15;;;;;;;22.45;9.90;;;6.10;85.50;;;;;;5075333;28;20488;-69
2022/03/14 09:55:46;;;;;;;25.98;11.13;;;6.30;84.50;;;;;;5075228;28;20146;-69
2022/03/14 09:58:13;;;;;;;19.83;9.43;;;6.30;83.90;;;;;;5075322;28;20393;-69
2022/03/14 10:00:40;;;;;;;23.20;10.65;;;6.50;81.80;;;;;;5074821;28;20025;-68
2022/03/14 10:03:06;;;;;;;18.67;11.63;;;6.60;81.40;;;;;;5075159;28;20379;-69
2022/03/14 10:05:32;;;;;;;24.13;11.82;;;6.70;80.60;;;;;;5074732;28;20078;-69
2022/03/14 10:07:58;;;;;;;23.15;13.88;;;6.90;80.90;;;;;;5074732;28;20021;-68
2022/03/14 10:10:24;;;;;;;26.88;14.52;;;7.00;81.50;;;;;;5073905;28;20096;-69
2022/03/14 10:12:53;;;;;;;25.15;14.65;;;7.10;80.70;;;;;;5074637;28;20449;-68
2022/03/14 10:15:26;;;;;;;27.27;14.88;;;7.20;79.60;;;;;;5075159;28;20055;-68
2022/03/14 10:17:53;;;;;;;22.13;14.35;;;7.30;79.50;;;;;;5074949;28;20051;-68
2022/03/14 10:20:21;;;;;;;32.45;19.00;;;7.40;77.90;;;;;;5074460;28;20366;-68
2022/03/14 10:22:47;;;;;;;30.15;18.15;;;7.50;77.20;;;;;;5074495;28;20138;-67
2022/03/14 10:25:15;;;;;;;32.92;18.75;;;7.60;76.90;;;;;;5074405;28;20385;-67
2022/03/14 10:27:45;;;;;;;31.63;18.13;;;7.70;76.30;;;;;;5074850;28;20078;-68
2022/03/14 10:30:29;;;;;;;32.33;18.13;;;7.90;75.80;;;;;;5074316;28;20393;-67
2022/03/14 10:33:12;;;;;;;31.50;17.48;;;8.00;75.00;;;;;;5074254;28;20030;-67
2022/03/14 10:35:40;;;;;;;31.50;17.33;;;8.10;75.60;;;;;;5074233;28;20013;-67
2022/03/14 10:38:08;;;;;;;25.95;15.88;;;8.10;76.10;;;;;;5074157;28;20086;-67
2022/03/14 10:40:36;;;;;;;24.65;14.13;;;8.30;77.00;;;;;;5074034;28;20361;-67
2022/03/14 10:43:06;;;;;;;24.17;15.50;;;8.30;76.90;;;;;;5074343;28;20013;-67
2022/03/14 10:45:31;;;;;;;29.83;16.42;;;8.50;77.00;;;;;;5074174;28;20020;-67
2022/03/14 10:47:58;;;;;;;27.73;16.75;;;8.60;76.50;;;;;;5074040;28;20381;-67
2022/03/14 10:50:29;;;;;;;30.67;15.50;;;8.70;75.60;;;;;;5074488;28;20024;-67
2022/03/14 10:53:01;;;;;;;30.63;16.70;;;8.80;75.40;;;;;;5073866;28;20017;-67
2022/03/14 10:55:45;;;;;;;27.90;14.35;;;8.80;74.90;;;;;;5073842;28;20070;-67
2022/03/14 10:58:19;;;;;;;28.38;14.85;;;8.90;75.10;;;;;;5073763;28;20028;-67
2022/03/14 11:00:50;;;;;;;21.25;14.43;;;9.00;74.50;;;;;;5074063;28;20029;-67
2022/03/14 11:03:25;;;;;;;25.42;15.45;;;9.20;74.30;;;;;;5073802;28;20021;-66
2022/03/14 11:06:00;;;;;;;21.60;14.10;;;9.30;73.20;;;;;;5073909;28;20020;-67
2022/03/14 11:08:40;;;;;;;22.98;12.75;;;9.50;72.90;;;;;;5074235;28;20078;-67
2022/03/14 11:11:11;;;;;;;19.65;10.30;;;9.60;71.60;;;;;;5073607;28;20427;-67
2022/03/14 11:13:51;;;;;;;16.13;9.30;;;9.80;70.90;;;;;;5074305;28;20021;-66
2022/03/14 11:16:29;;;;;;;16.52;9.15;;;9.90;70.50;;;;;;5073874;28;20081;-66
2022/03/14 11:18:55;;;;;;;18.95;12.00;;;10.00;70.90;;;;;;5073773;28;20093;-66
2022/03/14 11:21:26;;;;;;;19.60;11.70;;;10.00;72.20;;;;;;5073534;28;20032;-66
2022/03/14 11:23:53;;;;;;;16.80;9.57;;;9.90;72.90;;;;;;5073849;28;20033;-66
2022/03/14 11:26:21;;;;;;;14.43;8.48;;;9.90;72.40;;;;;;5073407;28;20477;-66
2022/03/14 11:28:49;;;;;;;13.23;7.93;;;10.00;73.60;;;;;;5073643;28;20465;-66
2022/03/14 11:31:18;;;;;;;11.98;6.38;;;10.10;72.00;;;;;;5073314;28;20115;-66
2022/03/14 11:33:44;;;;;;;9.43;5.80;;;10.20;72.10;;;;;;5073334;28;20031;-66
2022/03/14 11:36:10;;;;;;;10.32;6.32;;;10.30;70.40;;;;;;5073307;28;20029;-66
2022/03/14 11:38:36;;;;;;;15.13;6.90;;;10.50;71.10;;;;;;5071828;28;20029;-67
2022/03/14 11:41:03;;;;;;;10.95;6.07;;;10.60;70.50;;;;;;5073103;28;20025;-66
2022/03/14 11:43:29;;;;;;;9.88;5.57;;;10.70;70.20;;;;;;5073147;28;20040;-67
2022/03/14 11:45:59;;;;;;;8.65;5.63;;;10.80;71.00;;;;;;5073322;28;20024;-67
2022/03/14 11:48:32;;;;;;;9.68;5.00;;;10.90;70.40;;;;;;5073439;28;20025;-67
2022/03/14 11:51:02;;;;;;;12.95;6.03;;;10.90;69.00;;;;;;5073248;28;20042;-67
2022/03/14 11:53:30;;;;;;;9.00;5.38;;;11.00;68.60;;;;;;5073466;28;20021;-67
2022/03/14 11:56:07;;;;;;;10.48;5.13;;;11.00;67.40;;;;;;5073128;28;20032;-67
2022/03/14 11:58:40;;;;;;;8.32;4.93;;;11.10;68.10;;;;;;5073060;28;20039;-67
2022/03/14 12:01:20;;;;;;;10.63;5.00;;;11.10;67.30;;;;;;5072882;28;20021;-67
2022/03/14 12:03:48;;;;;;;7.87;5.17;;;11.20;67.80;;;;;;5073374;28;20077;-67
2022/03/14 12:06:13;;;;;;;8.18;4.95;;;11.30;66.50;;;;;;5072919;28;20290;-67
2022/03/14 12:08:45;;;;;;;9.90;6.43;;;11.40;67.80;;;;;;5073554;28;20013;-67
2022/03/14 12:11:32;;;;;;;8.63;5.07;;;11.40;67.20;;;;;;5072904;28;20050;-67
2022/03/14 12:13:57;;;;;;;11.65;5.20;;;11.50;67.40;;;;;;5073171;28;20477;-67
2022/03/14 12:16:45;;;;;;;8.88;5.72;;;11.50;65.30;;;;;;5072834;28;20079;-67
2022/03/14 12:19:31;;;;;;;8.38;4.90;;;11.60;66.10;;;;;;5073077;28;20078;-67
2022/03/14 12:21:59;;;;;;;6.95;4.63;;;11.60;67.60;;;;;;5073199;28;20025;-67
2022/03/14 12:24:36;;;;;;;7.75;4.40;;;11.70;66.90;;;;;;5073240;28;20078;-67
2022/03/14 12:27:26;;;;;;;7.65;4.45;;;11.70;65.30;;;;;;5073343;28;20380;-67
2022/03/14 12:29:54;;;;;;;6.65;4.35;;;11.80;66.30;;;;;;5072942;28;20020;-67
2022/03/14 12:32:36;;;;;;;7.65;4.30;;;11.80;66.90;;;;;;5072765;28;20051;-67
2022/03/14 12:35:05;;;;;;;7.53;4.47;;;11.90;66.00;;;;;;5074393;28;20027;-67
2022/03/14 12:37:38;;;;;;;6.43;3.90;;;12.00;64.40;;;;;;5076491;28;20024;-67
2022/03/14 12:40:05;;;;;;;6.28;4.10;;;12.10;63.60;;;;;;5076418;28;20471;-67
2022/03/14 12:42:46;;;;;;;7.57;4.28;;;12.20;63.90;;;;;;5076966;28;20070;-67
2022/03/14 12:45:22;;;;;;;7.35;4.00;;;12.30;63.70;;;;;;5075186;28;20500;-67